createdAt,value
2019-02-16T00:00:19.107Z,101507
2019-02-16T00:05:19.097Z,101506
2019-02-16T00:10:19.076Z,101509
2019-02-16T00:15:19.090Z,101508
2019-02-16T00:20:19.098Z,101508
2019-02-16T00:25:19.095Z,101497
2019-02-16T00:30:19.091Z,101502
2019-02-16T00:35:19.115Z,101498
2019-02-16T00:40:19.112Z,101493
2019-02-16T00:45:19.124Z,101487
2019-02-16T00:50:19.107Z,101486
2019-02-16T00:55:19.108Z,101480
2019-02-16T01:00:19.115Z,101469
2019-02-16T01:05:19.112Z,101469
2019-02-16T01:10:19.125Z,101460
2019-02-16T01:15:19.112Z,101461
2019-02-16T01:20:19.116Z,101456
2019-02-16T01:25:19.100Z,101447
2019-02-16T01:30:19.139Z,101443
2019-02-16T01:35:19.134Z,101436
2019-02-16T01:40:19.132Z,101438
2019-02-16T01:45:19.124Z,101425
2019-02-16T01:50:19.143Z,101418
2019-02-16T01:55:19.150Z,101407
2019-02-16T02:00:19.123Z,101405
2019-02-16T02:05:19.141Z,101407
2019-02-16T02:10:19.156Z,101411
2019-02-16T02:15:19.147Z,101415
2019-02-16T02:20:19.119Z,101415
2019-02-16T02:25:19.161Z,101407
2019-02-16T02:30:19.155Z,101408
2019-02-16T02:35:19.182Z,101407
2019-02-16T02:40:19.181Z,101391
2019-02-16T02:45:19.153Z,101406
2019-02-16T02:50:19.152Z,101401
2019-02-16T02:55:19.154Z,101389
2019-02-16T03:00:19.152Z,101383
2019-02-16T03:05:19.148Z,101379
2019-02-16T03:10:19.156Z,101369
2019-02-16T03:15:19.238Z,101382
2019-02-16T03:20:19.159Z,101369
2019-02-16T03:25:19.171Z,101363
2019-02-16T03:30:19.209Z,101360
2019-02-16T03:35:19.168Z,101357
2019-02-16T03:40:19.170Z,101346
2019-02-16T03:45:19.188Z,101347
2019-02-16T03:50:19.173Z,101348
2019-02-16T03:55:19.189Z,101347
2019-02-16T04:00:19.195Z,101341
2019-02-16T04:05:19.208Z,101340
2019-02-16T04:10:19.197Z,101340
2019-02-16T04:15:19.198Z,101334
2019-02-16T04:20:19.179Z,101335
2019-02-16T04:25:19.179Z,101329
2019-02-16T04:30:19.210Z,101310
2019-02-16T04:35:19.188Z,101313
2019-02-16T04:40:19.240Z,101305
2019-02-16T04:45:19.219Z,101312
2019-02-16T04:50:19.220Z,101306
2019-02-16T04:55:19.226Z,101311
2019-02-16T05:00:19.236Z,101308
2019-02-16T05:05:19.230Z,101313
2019-02-16T05:10:19.206Z,101307
2019-02-16T05:15:19.200Z,101309
2019-02-16T05:20:19.232Z,101312
2019-02-16T05:25:19.212Z,101303
2019-02-16T05:30:19.235Z,101314
2019-02-16T05:35:19.235Z,101301
2019-02-16T05:40:19.239Z,101306
2019-02-16T05:45:19.250Z,101300
2019-02-16T05:50:19.255Z,101296
2019-02-16T05:55:19.267Z,101298
2019-02-16T06:00:19.271Z,101306
2019-02-16T06:05:19.263Z,101294
2019-02-16T06:10:19.229Z,101311
2019-02-16T06:15:19.300Z,101295
2019-02-16T06:20:19.242Z,101294
2019-02-16T06:25:19.255Z,101291
2019-02-16T06:30:19.254Z,101286
2019-02-16T06:35:19.273Z,101295
2019-02-16T06:40:19.278Z,101302
2019-02-16T06:45:19.260Z,101302
2019-02-16T06:50:19.273Z,101304
2019-02-16T06:55:19.281Z,101297
2019-02-16T07:00:19.275Z,101307
2019-02-16T07:05:19.294Z,101305
2019-02-16T07:10:19.273Z,101303
2019-02-16T07:15:19.291Z,101298
2019-02-16T07:20:19.289Z,101308
2019-02-16T07:25:19.295Z,101317
2019-02-16T07:30:19.294Z,101318
2019-02-16T07:35:19.298Z,101315
2019-02-16T07:40:19.283Z,101321
2019-02-16T07:45:19.345Z,101320
2019-02-16T07:50:19.307Z,101311
2019-02-16T07:55:20.670Z,101318
2019-02-16T08:00:19.306Z,101298
2019-02-16T08:05:19.290Z,101288
2019-02-16T08:10:19.290Z,101289
2019-02-16T08:15:19.307Z,101276
2019-02-16T08:20:19.292Z,101273
2019-02-16T08:25:19.307Z,101275
2019-02-16T08:30:19.301Z,101268
2019-02-16T08:35:19.308Z,101267
2019-02-16T08:40:19.311Z,101273
2019-02-16T08:45:19.321Z,101284
2019-02-16T08:50:19.349Z,101266
2019-02-16T08:55:19.320Z,101257
2019-02-16T09:00:19.337Z,101259
2019-02-16T09:05:19.327Z,101250
2019-02-16T09:10:19.332Z,101254
2019-02-16T09:15:19.335Z,101245
2019-02-16T09:20:19.326Z,101256
2019-02-16T09:25:19.330Z,101244
2019-02-16T09:30:19.329Z,101242
2019-02-16T09:35:19.356Z,101239
2019-02-16T09:40:19.347Z,101242
2019-02-16T09:45:19.335Z,101248
2019-02-16T09:50:19.377Z,101229
2019-02-16T09:55:19.340Z,101242
2019-02-16T10:00:19.348Z,101244
2019-02-16T10:05:19.341Z,101242
2019-02-16T10:10:19.348Z,101238
2019-02-16T10:15:19.370Z,101244
2019-02-16T10:20:19.362Z,101240
2019-02-16T10:25:19.358Z,101232
2019-02-16T10:30:19.427Z,101237
2019-02-16T10:35:19.373Z,101238
2019-02-16T10:40:19.372Z,101235
2019-02-16T10:45:19.402Z,101231
2019-02-16T10:50:19.390Z,101229
2019-02-16T10:55:19.366Z,101216
2019-02-16T11:00:19.373Z,101214
2019-02-16T11:05:19.381Z,101211
2019-02-16T11:10:19.380Z,101204
2019-02-16T11:15:19.390Z,101201
2019-02-16T11:20:19.382Z,101196
2019-02-16T11:25:19.410Z,101197
2019-02-16T11:30:19.399Z,101192
2019-02-16T11:35:19.398Z,101191
2019-02-16T11:40:19.420Z,101191
2019-02-16T11:45:19.400Z,101180
2019-02-16T11:50:19.436Z,101173
2019-02-16T11:55:19.414Z,101164
2019-02-16T12:00:19.409Z,101175
2019-02-16T12:05:19.436Z,101175
2019-02-16T12:10:19.410Z,101170
2019-02-16T12:15:19.430Z,101169
2019-02-16T12:20:19.415Z,101151
2019-02-16T12:25:19.405Z,101154
2019-02-16T12:30:19.452Z,101160
2019-02-16T12:35:19.431Z,101154
2019-02-16T12:40:19.446Z,101149
2019-02-16T12:45:21.315Z,101149
2019-02-16T12:50:19.463Z,101149
2019-02-16T12:55:19.427Z,101153
2019-02-16T13:00:19.444Z,101158
2019-02-16T13:05:19.473Z,101140
2019-02-16T13:10:19.460Z,101135
2019-02-16T13:15:19.438Z,101126
2019-02-16T13:20:19.452Z,101125
2019-02-16T13:25:24.302Z,101117
2019-02-16T13:30:19.451Z,101115
2019-02-16T13:35:19.460Z,101111
2019-02-16T13:40:19.611Z,101106
2019-02-16T13:45:19.465Z,101113
2019-02-16T13:50:20.302Z,101106
2019-02-16T13:55:19.487Z,101108
2019-02-16T14:00:19.476Z,101109
2019-02-16T14:05:19.494Z,101102
2019-02-16T14:10:19.466Z,101107
2019-02-16T14:15:19.475Z,101099
2019-02-16T14:20:19.478Z,101105
2019-02-16T14:25:19.488Z,101111
2019-02-16T14:30:19.485Z,101099
2019-02-16T14:35:19.486Z,101093
2019-02-16T14:40:19.491Z,101089
2019-02-16T14:45:19.503Z,101094
2019-02-16T14:50:19.494Z,101090
2019-02-16T14:55:19.497Z,101076
2019-02-16T15:00:20.335Z,101094
2019-02-16T15:05:19.494Z,101086
2019-02-16T15:10:19.498Z,101078
2019-02-16T15:15:19.510Z,101068
2019-02-16T15:20:19.495Z,101067
2019-02-16T15:25:19.525Z,101064
2019-02-16T15:30:19.521Z,101070
2019-02-16T15:35:20.541Z,101067
2019-02-16T15:40:19.506Z,101062
2019-02-16T15:45:19.504Z,101067
2019-02-16T15:50:19.524Z,101056
2019-02-16T15:55:19.516Z,101051
2019-02-16T16:00:19.595Z,101063
2019-02-16T16:05:19.573Z,101052
2019-02-16T16:10:19.521Z,101045
2019-02-16T16:15:19.505Z,101056
2019-02-16T16:20:19.500Z,101056
2019-02-16T16:25:19.547Z,101051
2019-02-16T16:30:19.525Z,101059
2019-02-16T16:35:19.548Z,101056
2019-02-16T16:40:19.549Z,101048
2019-02-16T16:45:19.558Z,101051
2019-02-16T16:50:19.559Z,101053
2019-02-16T16:55:19.571Z,101057
2019-02-16T17:00:19.537Z,101052
2019-02-16T17:05:19.528Z,101060
2019-02-16T17:10:19.563Z,101062
2019-02-16T17:15:19.560Z,101053
2019-02-16T17:20:19.549Z,101062
2019-02-16T17:25:19.570Z,101063
2019-02-16T17:30:19.548Z,101058
2019-02-16T17:35:19.559Z,101056
2019-02-16T17:40:19.577Z,101060
2019-02-16T17:45:19.597Z,101053
2019-02-16T17:50:19.578Z,101056
2019-02-16T17:55:19.652Z,101053
2019-02-16T18:00:19.603Z,101055
2019-02-16T18:05:19.572Z,101061
2019-02-16T18:10:19.594Z,101052
2019-02-16T18:15:19.594Z,101048
2019-02-16T18:20:19.577Z,101052
2019-02-16T18:25:19.604Z,101051
2019-02-16T18:30:19.579Z,101063
2019-02-16T18:35:23.869Z,101068
2019-02-16T18:40:19.688Z,101060
2019-02-16T18:45:19.645Z,101065
2019-02-16T18:50:19.663Z,101059
2019-02-16T18:55:19.609Z,101063
2019-02-16T19:00:19.633Z,101064
2019-02-16T19:05:19.587Z,101056
2019-02-16T19:10:19.597Z,101061
2019-02-16T19:15:19.609Z,101060
2019-02-16T19:20:19.602Z,101048
2019-02-16T19:25:19.614Z,101056
2019-02-16T19:30:19.628Z,101057
2019-02-16T19:35:19.631Z,101057
2019-02-16T19:40:19.637Z,101069
2019-02-16T19:45:19.682Z,101076
2019-02-16T19:50:19.642Z,101072
2019-02-16T19:55:19.642Z,101077
2019-02-16T20:00:19.653Z,101076
2019-02-16T20:05:19.662Z,101066
2019-02-16T20:10:19.634Z,101057
2019-02-16T20:15:19.660Z,101064
2019-02-16T20:20:19.637Z,101067
2019-02-16T20:25:19.642Z,101080
2019-02-16T20:30:19.651Z,101077
2019-02-16T20:35:19.646Z,101082
2019-02-16T20:40:19.663Z,101086
2019-02-16T20:45:19.656Z,101089
2019-02-16T20:50:19.671Z,101080
2019-02-16T20:55:19.665Z,101085
2019-02-16T21:00:19.662Z,101094
2019-02-16T21:05:19.690Z,101105
2019-02-16T21:10:19.674Z,101090
2019-02-16T21:15:19.675Z,101099
2019-02-16T21:20:19.683Z,101106
2019-02-16T21:25:19.675Z,101103
2019-02-16T21:30:19.697Z,101103
2019-02-16T21:35:19.655Z,101099
2019-02-16T21:40:19.687Z,101095
2019-02-16T21:45:19.680Z,101114
2019-02-16T21:50:19.683Z,101099
2019-02-16T21:55:19.691Z,101107
2019-02-16T22:00:19.704Z,101106
2019-02-16T22:05:19.697Z,101105
2019-02-16T22:10:19.707Z,101093
2019-02-16T22:15:19.771Z,101108
2019-02-16T22:20:19.702Z,101122
2019-02-16T22:25:21.363Z,101111
2019-02-16T22:30:19.739Z,101106
2019-02-16T22:35:19.711Z,101094
2019-02-16T22:40:19.714Z,101108
2019-02-16T22:45:19.695Z,101111
2019-02-16T22:50:19.692Z,101113
2019-02-16T22:55:19.718Z,101110
2019-02-16T23:00:19.702Z,101115
2019-02-16T23:05:19.703Z,101125
2019-02-16T23:10:19.737Z,101119
2019-02-16T23:15:19.732Z,101128
2019-02-16T23:20:19.753Z,101127
2019-02-16T23:25:19.731Z,101122
2019-02-16T23:30:19.794Z,101122
2019-02-16T23:35:19.740Z,101128
2019-02-16T23:40:19.759Z,101125
2019-02-16T23:45:19.746Z,101118
2019-02-16T23:50:19.750Z,101115
2019-02-16T23:55:19.936Z,101131
